createdAt,value
2023-03-01T00:01:19.028Z,60.81
2023-03-01T00:03:47.636Z,60.89
2023-03-01T00:06:16.340Z,60.85
2023-03-01T00:08:44.012Z,60.75
2023-03-01T00:11:15.942Z,60.57
2023-03-01T00:13:44.506Z,61.28
2023-03-01T00:16:14.963Z,61.04
2023-03-01T00:18:42.830Z,61.25
2023-03-01T00:21:10.704Z,60.97
2023-03-01T00:23:39.911Z,61.29
2023-03-01T00:26:09.953Z,61.51
2023-03-01T00:28:39.024Z,61.45
2023-03-01T00:31:07.626Z,61.30
2023-03-01T00:33:35.686Z,61.26
2023-03-01T00:36:04.652Z,61.26
2023-03-01T00:38:32.740Z,61.60
2023-03-01T00:41:06.116Z,61.73
2023-03-01T00:43:39.119Z,61.41
2023-03-01T00:46:08.212Z,61.48
2023-03-01T00:48:36.867Z,61.68
2023-03-01T00:51:08.804Z,61.64
2023-03-01T00:53:36.901Z,61.92
2023-03-01T00:56:06.443Z,62.00
2023-03-01T00:58:34.514Z,62.40
2023-03-01T01:01:18.303Z,62.60
2023-03-01T01:03:47.805Z,62.47
2023-03-01T01:06:17.210Z,62.84
2023-03-01T01:08:44.925Z,62.81
2023-03-01T01:11:12.741Z,62.59
2023-03-01T01:13:41.015Z,62.58
2023-03-01T01:16:10.609Z,63.01
2023-03-01T01:18:38.312Z,63.45
2023-03-01T01:21:07.838Z,62.96
2023-03-01T01:23:35.860Z,63.33
2023-03-01T01:26:08.312Z,63.22
2023-03-01T01:28:35.846Z,63.30
2023-03-01T01:31:03.663Z,63.79
2023-03-01T01:33:33.552Z,63.63
2023-03-01T01:36:01.441Z,63.50
2023-03-01T01:38:29.159Z,63.33
2023-03-01T01:40:56.809Z,63.43
2023-03-01T01:43:26.574Z,63.38
2023-03-01T01:45:58.374Z,62.93
2023-03-01T01:48:42.359Z,62.80
2023-03-01T01:51:15.142Z,63.30
2023-03-01T01:53:47.174Z,63.13
2023-03-01T01:56:17.387Z,63.07
2023-03-01T01:58:46.707Z,63.51
2023-03-01T02:01:14.471Z,63.24
2023-03-01T02:03:46.097Z,63.16
2023-03-01T02:06:20.806Z,63.25
2023-03-01T02:08:50.900Z,63.36
2023-03-01T02:11:20.419Z,63.59
2023-03-01T02:13:50.228Z,63.69
2023-03-01T02:16:18.808Z,63.84
2023-03-01T02:18:47.380Z,63.78
2023-03-01T02:21:30.952Z,64.14
2023-03-01T02:24:01.331Z,64.00
2023-03-01T02:26:38.918Z,63.53
2023-03-01T02:29:08.267Z,63.87
2023-03-01T02:31:44.270Z,63.97
2023-03-01T02:34:15.036Z,63.89
2023-03-01T02:36:47.844Z,63.69
2023-03-01T02:39:20.674Z,63.83
2023-03-01T02:41:51.787Z,64.32
2023-03-01T02:44:21.217Z,64.11
2023-03-01T02:46:50.929Z,64.04
2023-03-01T02:49:22.689Z,64.06
2023-03-01T02:52:10.018Z,64.40
2023-03-01T02:54:45.008Z,64.44
2023-03-01T02:57:13.518Z,64.83
2023-03-01T02:59:44.662Z,64.50
2023-03-01T03:02:36.838Z,64.72
2023-03-01T03:05:11.011Z,64.39
2023-03-01T03:07:41.786Z,64.61
2023-03-01T03:10:13.034Z,64.71
2023-03-01T03:12:41.581Z,64.56
2023-03-01T03:15:13.592Z,64.85
2023-03-01T03:17:44.634Z,64.57
2023-03-01T03:20:19.813Z,64.51
2023-03-01T03:22:48.917Z,64.77
2023-03-01T03:25:17.308Z,64.57
2023-03-01T03:27:47.278Z,64.61
2023-03-01T03:30:18.066Z,64.48
2023-03-01T03:32:53.375Z,64.66
2023-03-01T03:35:22.564Z,64.77
2023-03-01T03:38:07.108Z,64.54
2023-03-01T03:40:36.924Z,64.70
2023-03-01T03:43:05.966Z,64.89
2023-03-01T03:45:36.024Z,65.09
2023-03-01T03:48:05.351Z,65.19
2023-03-01T03:50:33.829Z,65.01
2023-03-01T03:53:03.228Z,65.07
2023-03-01T03:55:31.867Z,65.32
2023-03-01T03:58:03.097Z,65.07
2023-03-01T04:00:31.132Z,65.06
2023-03-01T04:03:00.230Z,65.09
2023-03-01T04:05:28.570Z,65.10
2023-03-01T04:08:08.122Z,65.07
2023-03-01T04:10:38.212Z,65.12
2023-03-01T04:13:06.385Z,65.25
2023-03-01T04:15:34.676Z,65.31
2023-03-01T04:18:04.190Z,65.41
2023-03-01T04:20:35.660Z,65.42
2023-03-01T04:23:11.554Z,65.57
2023-03-01T04:25:40.866Z,65.71
2023-03-01T04:28:09.084Z,65.89
2023-03-01T04:30:37.229Z,66.17
2023-03-01T04:33:08.384Z,66.10
2023-03-01T04:35:37.013Z,65.71
2023-03-01T04:38:05.570Z,65.52
2023-03-01T04:40:33.797Z,65.55
2023-03-01T04:43:01.597Z,65.62
2023-03-01T04:45:29.271Z,65.83
2023-03-01T04:47:59.152Z,65.82
2023-03-01T04:50:28.411Z,65.96
2023-03-01T04:52:59.369Z,66.25
2023-03-01T04:55:27.893Z,66.32
2023-03-01T04:57:56.294Z,66.17
2023-03-01T05:00:24.941Z,66.00
2023-03-01T05:02:55.205Z,65.93
2023-03-01T05:05:26.564Z,66.07
2023-03-01T05:08:00.932Z,66.18
2023-03-01T05:10:31.141Z,66.07
2023-03-01T05:12:59.532Z,66.05
2023-03-01T05:15:27.610Z,65.86
2023-03-01T05:17:56.788Z,66.35
2023-03-01T05:20:24.906Z,66.66
2023-03-01T05:22:53.391Z,66.70
2023-03-01T05:25:22.996Z,67.08
2023-03-01T05:27:50.877Z,67.02
2023-03-01T05:30:19.562Z,67.07
2023-03-01T05:32:48.861Z,67.11
2023-03-01T05:35:18.861Z,66.91
2023-03-01T05:37:48.572Z,67.25
2023-03-01T05:40:19.777Z,67.03
2023-03-01T05:42:50.065Z,66.80
2023-03-01T05:45:19.296Z,66.72
2023-03-01T05:47:48.716Z,67.02
2023-03-01T05:50:20.150Z,67.11
2023-03-01T05:52:49.329Z,67.06
2023-03-01T05:55:18.447Z,67.26
2023-03-01T05:57:46.136Z,67.20
2023-03-01T06:00:17.351Z,67.46
2023-03-01T06:02:45.042Z,67.26
2023-03-01T06:05:14.388Z,67.39
2023-03-01T06:07:43.324Z,67.43
2023-03-01T06:10:12.855Z,67.53
2023-03-01T06:12:43.057Z,67.72
2023-03-01T06:15:12.792Z,67.50
2023-03-01T06:17:43.411Z,67.47
2023-03-01T06:20:14.209Z,67.52
2023-03-01T06:22:42.762Z,67.34
2023-03-01T06:25:11.474Z,67.28
2023-03-01T06:27:39.183Z,67.07
2023-03-01T06:30:08.856Z,67.12
2023-03-01T06:32:36.793Z,67.39
2023-03-01T06:35:06.757Z,67.25
2023-03-01T06:37:34.681Z,67.03
2023-03-01T06:40:05.684Z,67.22
2023-03-01T06:42:33.361Z,67.27
2023-03-01T06:45:01.119Z,67.27
2023-03-01T06:47:28.939Z,67.17
2023-03-01T06:49:56.595Z,66.92
2023-03-01T06:52:25.811Z,66.93
2023-03-01T06:54:53.478Z,66.92
2023-03-01T06:57:21.130Z,66.85
2023-03-01T06:59:48.889Z,66.70
2023-03-01T07:02:17.349Z,66.77
2023-03-01T07:04:45.147Z,66.69
2023-03-01T07:07:12.891Z,67.05
2023-03-01T07:09:41.911Z,67.18
2023-03-01T07:12:10.013Z,67.03
2023-03-01T07:14:37.738Z,67.08
2023-03-01T07:17:05.535Z,67.04
2023-03-01T07:19:33.265Z,67.13
2023-03-01T07:22:01.065Z,66.78
2023-03-01T07:24:29.169Z,67.08
2023-03-01T07:26:58.234Z,66.41
2023-03-01T07:29:25.978Z,66.56
2023-03-01T07:31:53.752Z,66.22
2023-03-01T07:34:21.547Z,66.08
2023-03-01T07:36:49.219Z,66.19
2023-03-01T07:39:19.398Z,65.91
2023-03-01T07:41:47.423Z,65.56
2023-03-01T07:44:17.472Z,65.29
2023-03-01T07:46:45.651Z,65.28
2023-03-01T07:49:13.308Z,65.10
2023-03-01T07:51:40.984Z,65.01
2023-03-01T07:54:08.747Z,64.90
2023-03-01T07:56:36.503Z,64.75
2023-03-01T07:59:04.174Z,64.76
2023-03-01T08:01:33.297Z,64.80
2023-03-01T08:04:01.029Z,64.43
2023-03-01T08:06:28.820Z,64.58
2023-03-01T08:08:56.636Z,64.06
2023-03-01T08:11:24.652Z,63.82
2023-03-01T08:13:52.723Z,63.90
2023-03-01T08:16:21.815Z,63.53
2023-03-01T08:18:50.912Z,63.70
2023-03-01T08:21:19.661Z,63.42
2023-03-01T08:23:47.445Z,63.30
2023-03-01T08:26:17.114Z,63.02
2023-03-01T08:28:45.038Z,63.08
2023-03-01T08:31:18.314Z,62.55
2023-03-01T08:33:51.416Z,62.42
2023-03-01T08:36:21.906Z,61.55
2023-03-01T08:38:49.651Z,61.83
2023-03-01T08:41:17.595Z,61.76
2023-03-01T08:43:45.577Z,61.61
2023-03-01T08:46:14.115Z,61.09
2023-03-01T08:48:44.011Z,61.41
2023-03-01T08:51:13.532Z,61.06
2023-03-01T08:53:43.349Z,60.52
2023-03-01T08:56:11.822Z,60.56
2023-03-01T08:58:40.871Z,60.54
2023-03-01T09:01:12.913Z,60.37
2023-03-01T09:03:40.740Z,59.49
2023-03-01T09:06:09.778Z,59.72
2023-03-01T09:08:38.662Z,59.40
2023-03-01T09:11:17.720Z,59.20
2023-03-01T09:13:45.463Z,58.77
2023-03-01T09:16:15.210Z,58.45
2023-03-01T09:18:43.123Z,58.78
2023-03-01T09:21:14.070Z,57.99
2023-03-01T09:23:43.941Z,58.31
2023-03-01T09:26:15.519Z,58.47
2023-03-01T09:28:43.195Z,57.90
2023-03-01T09:31:10.962Z,57.97
2023-03-01T09:33:38.621Z,57.75
2023-03-01T09:36:09.126Z,56.88
2023-03-01T09:38:36.889Z,57.10
2023-03-01T09:41:04.854Z,56.75
2023-03-01T09:46:14.884Z,55.33
2023-03-01T09:48:46.834Z,55.62
2023-03-01T09:51:20.145Z,54.92
2023-03-01T09:53:48.003Z,54.85
2023-03-01T09:56:22.540Z,54.02
2023-03-01T09:58:58.361Z,53.90
2023-03-01T10:01:33.785Z,54.07
2023-03-01T10:04:13.784Z,53.57
2023-03-01T10:06:47.531Z,52.88
2023-03-01T10:09:18.661Z,52.60
2023-03-01T10:11:50.685Z,53.12
2023-03-01T10:14:32.572Z,52.76
2023-03-01T10:17:04.016Z,52.46
2023-03-01T10:19:35.940Z,51.99
2023-03-01T10:22:11.445Z,51.65
2023-03-01T10:24:39.487Z,51.80
2023-03-01T10:27:11.099Z,51.50
2023-03-01T10:29:50.582Z,50.88
2023-03-01T10:32:20.189Z,50.11
2023-03-01T10:34:47.898Z,50.13
2023-03-01T10:37:19.279Z,50.72
2023-03-01T10:39:59.002Z,50.26
2023-03-01T10:42:31.028Z,50.56
2023-03-01T10:45:16.123Z,50.57
2023-03-01T10:47:43.820Z,50.80
2023-03-01T10:50:22.030Z,49.67
2023-03-01T10:53:00.776Z,49.85
2023-03-01T10:55:35.503Z,49.46
2023-03-01T10:58:19.970Z,49.52
2023-03-01T11:00:52.183Z,50.10
2023-03-01T11:03:24.111Z,49.71
2023-03-01T11:05:58.516Z,49.75
2023-03-01T11:08:45.453Z,49.39
2023-03-01T11:11:24.597Z,49.12
2023-03-01T11:13:58.679Z,49.17
2023-03-01T11:16:35.933Z,47.92
2023-03-01T11:19:17.477Z,48.20
2023-03-01T11:21:55.509Z,47.95
2023-03-01T11:24:29.202Z,47.89
2023-03-01T11:26:57.354Z,47.93
2023-03-01T11:29:37.207Z,47.22
2023-03-01T11:32:10.784Z,47.51
2023-03-01T11:34:44.909Z,47.21
2023-03-01T11:37:25.837Z,47.16
2023-03-01T11:40:00.786Z,46.71
2023-03-01T11:42:40.023Z,46.91
2023-03-01T11:45:12.120Z,47.26
2023-03-01T11:47:57.776Z,47.04
2023-03-01T11:50:34.974Z,47.27
2023-03-01T11:53:22.121Z,46.48
2023-03-01T11:56:02.291Z,47.23
2023-03-01T11:58:45.574Z,47.42
2023-03-01T12:01:34.117Z,46.45
2023-03-01T12:04:26.688Z,46.83
2023-03-01T12:06:59.060Z,46.78
2023-03-01T12:09:44.527Z,47.08
2023-03-01T12:12:37.345Z,46.99
2023-03-01T12:15:37.085Z,46.99
2023-03-01T12:18:21.974Z,46.50
2023-03-01T12:21:00.776Z,46.55
2023-03-01T12:23:43.900Z,46.58
2023-03-01T12:26:21.211Z,46.36
2023-03-01T12:29:03.440Z,46.57
2023-03-01T12:32:06.053Z,46.03
2023-03-01T12:34:57.869Z,45.48
2023-03-01T12:37:35.497Z,45.42
2023-03-01T12:40:25.329Z,45.00
2023-03-01T12:43:04.716Z,44.96
2023-03-01T12:45:51.344Z,44.63
2023-03-01T12:48:39.597Z,45.12
2023-03-01T12:51:11.789Z,44.30
2023-03-01T12:53:44.481Z,44.38
2023-03-01T12:56:15.979Z,44.65
2023-03-01T12:58:58.767Z,45.03
2023-03-01T13:01:38.148Z,44.97
2023-03-01T13:04:18.351Z,44.35
2023-03-01T13:06:56.621Z,44.21
2023-03-01T13:09:33.808Z,44.24
2023-03-01T13:12:04.307Z,44.51
2023-03-01T13:14:47.744Z,43.70
2023-03-01T13:17:43.464Z,43.08
2023-03-01T13:20:15.733Z,43.77
2023-03-01T13:22:54.344Z,43.97
2023-03-01T13:25:27.658Z,43.81
2023-03-01T13:28:44.562Z,43.70
2023-03-01T13:31:33.042Z,43.47
2023-03-01T13:34:01.467Z,43.88
2023-03-01T13:36:49.915Z,43.76
2023-03-01T13:39:34.485Z,43.93
2023-03-01T13:42:03.699Z,44.40
2023-03-01T13:44:36.804Z,43.73
2023-03-01T13:47:15.719Z,43.67
2023-03-01T13:49:47.592Z,43.42
2023-03-01T13:52:34.067Z,43.00
2023-03-01T13:55:04.751Z,43.02
2023-03-01T13:57:39.996Z,43.28
2023-03-01T14:00:09.787Z,43.19
2023-03-01T14:02:38.045Z,43.32
2023-03-01T14:05:06.446Z,43.51
2023-03-01T14:07:34.141Z,42.67
2023-03-01T14:10:04.760Z,42.74
2023-03-01T14:12:43.828Z,42.87
2023-03-01T14:15:20.618Z,42.85
2023-03-01T14:18:06.196Z,43.16
2023-03-01T14:20:39.589Z,42.76
2023-03-01T14:23:13.902Z,43.13
2023-03-01T14:25:49.545Z,43.27
2023-03-01T14:28:20.565Z,42.37
2023-03-01T14:30:51.020Z,42.45
2023-03-01T14:33:24.328Z,42.58
2023-03-01T14:35:57.759Z,42.58
2023-03-01T14:38:30.814Z,42.17
2023-03-01T14:41:02.451Z,41.95
2023-03-01T14:43:32.633Z,41.52
2023-03-01T14:46:00.729Z,41.90
2023-03-01T14:48:30.039Z,42.05
2023-03-01T14:50:58.138Z,41.44
2023-03-01T14:53:28.841Z,41.76
2023-03-01T14:55:59.866Z,41.43
2023-03-01T14:58:28.066Z,41.18
2023-03-01T15:00:59.667Z,41.67
2023-03-01T15:03:32.442Z,41.54
2023-03-01T15:06:02.022Z,41.46
2023-03-01T15:08:33.877Z,41.81
2023-03-01T15:11:07.284Z,41.41
2023-03-01T15:13:37.594Z,41.81
2023-03-01T15:16:11.382Z,41.56
2023-03-01T15:18:44.725Z,41.68
2023-03-01T15:21:18.815Z,41.61
2023-03-01T15:23:54.046Z,42.08
2023-03-01T15:26:27.421Z,41.85
2023-03-01T15:28:59.099Z,40.79
2023-03-01T15:31:30.316Z,40.75
2023-03-01T15:34:13.091Z,41.15
2023-03-01T15:36:42.729Z,40.58
2023-03-01T15:39:32.625Z,40.78
2023-03-01T15:42:00.780Z,41.21
2023-03-01T15:44:41.555Z,41.32
2023-03-01T15:47:26.668Z,41.47
2023-03-01T15:49:56.271Z,41.47
2023-03-01T15:52:30.009Z,41.57
2023-03-01T15:54:59.930Z,41.52
2023-03-01T15:57:27.720Z,41.47
2023-03-01T15:59:55.551Z,41.26
2023-03-01T16:02:25.521Z,41.75
2023-03-01T16:04:54.687Z,41.54
2023-03-01T16:07:22.469Z,42.32
2023-03-01T16:09:50.157Z,42.69
2023-03-01T16:12:18.731Z,42.65
2023-03-01T16:14:46.448Z,42.60
2023-03-01T16:17:14.169Z,42.84
2023-03-01T16:19:43.224Z,42.99
2023-03-01T16:22:12.267Z,43.30
2023-03-01T16:24:41.621Z,43.07
2023-03-01T16:27:09.472Z,43.66
2023-03-01T16:29:37.373Z,43.63
2023-03-01T16:32:05.744Z,43.89
2023-03-01T16:34:33.700Z,43.98
2023-03-01T16:37:02.862Z,44.13
2023-03-01T16:39:30.762Z,44.02
2023-03-01T16:41:58.585Z,43.91
2023-03-01T16:44:28.889Z,44.40
2023-03-01T16:46:56.656Z,44.17
2023-03-01T16:49:24.397Z,44.21
2023-03-01T16:51:54.653Z,43.90
2023-03-01T16:54:25.874Z,44.11
2023-03-01T16:56:53.675Z,44.11
2023-03-01T16:59:21.536Z,44.29
2023-03-01T17:01:49.329Z,44.42
2023-03-01T17:04:17.782Z,44.35
2023-03-01T17:06:50.326Z,44.70
2023-03-01T17:09:18.807Z,44.68
2023-03-01T17:11:48.552Z,44.63
2023-03-01T17:14:17.205Z,44.99
2023-03-01T17:16:46.179Z,45.05
2023-03-01T17:19:18.606Z,45.33
2023-03-01T17:21:46.372Z,45.28
2023-03-01T17:24:14.609Z,45.31
2023-03-01T17:26:42.546Z,44.87
2023-03-01T17:29:13.283Z,45.38
2023-03-01T17:31:41.206Z,45.01
2023-03-01T17:34:09.227Z,45.24
2023-03-01T17:36:44.234Z,45.17
2023-03-01T17:39:12.313Z,45.44
2023-03-01T17:41:40.098Z,45.46
2023-03-01T17:44:07.899Z,45.47
2023-03-01T17:46:37.023Z,45.63
2023-03-01T17:49:04.989Z,45.95
2023-03-01T17:51:33.030Z,46.14
2023-03-01T17:54:00.976Z,46.15
2023-03-01T17:56:28.829Z,46.49
2023-03-01T17:58:56.664Z,46.33
2023-03-01T18:01:24.499Z,46.23
2023-03-01T18:03:54.579Z,46.21
2023-03-01T18:06:24.890Z,46.60
2023-03-01T18:08:55.052Z,46.28
2023-03-01T18:11:24.271Z,46.39
2023-03-01T18:13:53.022Z,46.08
2023-03-01T18:16:21.898Z,46.64
2023-03-01T18:18:54.089Z,46.50
2023-03-01T18:21:23.687Z,46.78
2023-03-01T18:23:51.651Z,46.32
2023-03-01T18:26:22.147Z,46.53
2023-03-01T18:28:52.617Z,46.99
2023-03-01T18:31:22.961Z,47.00
2023-03-01T18:33:54.791Z,46.92
2023-03-01T18:36:26.293Z,47.30
2023-03-01T18:38:56.234Z,46.98
2023-03-01T18:41:24.751Z,47.12
2023-03-01T18:43:52.416Z,47.36
2023-03-01T18:46:21.109Z,47.70
2023-03-01T18:48:49.241Z,47.10
2023-03-01T18:51:20.197Z,47.42
2023-03-01T18:53:49.821Z,47.35
2023-03-01T18:56:17.783Z,47.48
2023-03-01T18:58:45.736Z,47.61
2023-03-01T19:01:16.567Z,48.10
2023-03-01T19:03:44.644Z,47.96
2023-03-01T19:06:12.689Z,47.85
2023-03-01T19:08:42.158Z,47.91
2023-03-01T19:11:17.390Z,47.70
2023-03-01T19:13:46.770Z,47.85
2023-03-01T19:16:17.058Z,47.99
2023-03-01T19:18:50.390Z,48.12
2023-03-01T19:21:23.022Z,48.24
2023-03-01T19:23:50.891Z,48.38
2023-03-01T19:26:21.991Z,48.42
2023-03-01T19:28:50.300Z,49.10
2023-03-01T19:31:21.041Z,49.15
2023-03-01T19:33:50.072Z,48.76
2023-03-01T19:36:21.377Z,48.94
2023-03-01T19:38:50.000Z,49.33
2023-03-01T19:41:22.656Z,49.49
2023-03-01T19:43:50.481Z,49.42
2023-03-01T19:46:18.328Z,49.28
2023-03-01T19:48:53.614Z,49.50
2023-03-01T19:51:21.605Z,49.60
2023-03-01T19:53:49.614Z,49.65
2023-03-01T19:56:17.449Z,49.65
2023-03-01T19:58:50.178Z,50.16
2023-03-01T20:01:20.931Z,49.85
2023-03-01T20:03:49.432Z,49.93
2023-03-01T20:06:20.312Z,50.22
2023-03-01T20:08:50.396Z,49.78
2023-03-01T20:11:19.640Z,49.96
2023-03-01T20:13:48.780Z,50.00
2023-03-01T20:16:18.342Z,50.26
2023-03-01T20:18:50.960Z,50.39
2023-03-01T20:21:24.389Z,50.71
2023-03-01T20:23:52.700Z,50.47
2023-03-01T20:26:25.453Z,50.50
2023-03-01T20:28:57.848Z,50.77
2023-03-01T20:31:29.283Z,51.04
2023-03-01T20:33:59.004Z,51.09
2023-03-01T20:36:27.851Z,51.48
2023-03-01T20:38:57.479Z,51.33
2023-03-01T20:41:26.417Z,51.17
2023-03-01T20:43:56.920Z,51.86
2023-03-01T20:46:26.776Z,51.39
2023-03-01T20:48:55.137Z,51.26
2023-03-01T20:51:23.018Z,51.96
2023-03-01T20:53:51.410Z,51.40
2023-03-01T20:56:21.246Z,51.78
2023-03-01T20:58:52.054Z,51.42
2023-03-01T21:01:23.778Z,51.63
2023-03-01T21:03:52.145Z,51.64
2023-03-01T21:06:19.990Z,51.70
2023-03-01T21:08:47.724Z,52.25
2023-03-01T21:11:18.268Z,52.09
2023-03-01T21:13:46.608Z,52.12
2023-03-01T21:16:14.596Z,51.97
2023-03-01T21:18:44.127Z,51.97
2023-03-01T21:21:13.552Z,52.25
2023-03-01T21:23:42.931Z,52.12
2023-03-01T21:26:12.620Z,51.94
2023-03-01T21:28:42.037Z,52.16
2023-03-01T21:31:12.974Z,52.37
2023-03-01T21:33:45.776Z,51.98
2023-03-01T21:36:14.259Z,52.46
2023-03-01T21:38:43.860Z,52.70
2023-03-01T21:41:13.836Z,52.51
2023-03-01T21:43:43.394Z,52.04
2023-03-01T21:46:14.065Z,52.68
2023-03-01T21:48:45.276Z,52.89
2023-03-01T21:51:15.142Z,52.51
2023-03-01T21:53:43.466Z,52.76
2023-03-01T21:56:16.281Z,52.66
2023-03-01T21:58:44.066Z,52.78
2023-03-01T22:01:13.739Z,52.87
2023-03-01T22:03:46.082Z,53.06
2023-03-01T22:06:19.487Z,52.83
2023-03-01T22:08:48.573Z,52.82
2023-03-01T22:11:17.899Z,52.47
2023-03-01T22:13:45.667Z,52.91
2023-03-01T22:16:13.418Z,52.70
2023-03-01T22:18:41.318Z,52.85
2023-03-01T22:21:11.094Z,52.58
2023-03-01T22:23:41.139Z,53.28
2023-03-01T22:26:23.436Z,53.37
2023-03-01T22:28:51.869Z,53.10
2023-03-01T22:31:19.709Z,53.72
2023-03-01T22:33:47.643Z,53.35
2023-03-01T22:36:16.859Z,53.45
2023-03-01T22:38:44.772Z,53.85
2023-03-01T22:41:12.573Z,53.97
2023-03-01T22:43:40.303Z,53.62
2023-03-01T22:46:13.252Z,53.91
2023-03-01T22:48:41.368Z,53.32
2023-03-01T22:51:10.338Z,53.59
2023-03-01T22:53:39.409Z,53.24
2023-03-01T22:56:15.421Z,53.46
2023-03-01T22:58:43.228Z,53.08
2023-03-01T23:01:12.791Z,53.82
2023-03-01T23:03:40.649Z,53.03
2023-03-01T23:06:09.032Z,53.66
2023-03-01T23:08:37.235Z,53.09
2023-03-01T23:11:12.147Z,53.10
2023-03-01T23:13:40.583Z,53.40
2023-03-01T23:16:09.618Z,53.10
2023-03-01T23:18:38.390Z,53.42
2023-03-01T23:21:09.584Z,53.42
2023-03-01T23:23:37.382Z,53.23
2023-03-01T23:26:07.940Z,53.98
2023-03-01T23:28:40.281Z,53.67
2023-03-01T23:31:10.635Z,54.02
2023-03-01T23:33:38.808Z,53.86
2023-03-01T23:36:08.033Z,53.36
2023-03-01T23:38:35.798Z,53.87
2023-03-01T23:41:03.498Z,53.27
2023-03-01T23:43:33.109Z,53.66
2023-03-01T23:46:00.863Z,53.90
2023-03-01T23:48:28.653Z,53.59
2023-03-01T23:50:56.670Z,53.82
2023-03-01T23:53:24.362Z,53.40
2023-03-01T23:55:55.150Z,54.29
2023-03-01T23:58:28.547Z,53.54
